Time;durP1;ratioP1;P1;durP2;ratioP2;P2;SDS_P1;SDS_P2;PMS_P1;PMS_P2;Temp;Humidity;BMP_temperature;BMP_pressure;BME280_temperature;BME280_humidity;BME280_pressure;Samples;Min_cycle;Max_cycle;Signal;HPM_P1;HPM_P2
2022/12/25 00:00:18;;;;;;;37.95;9.68;;;7.30;90.90;;;;;;9179947;19;20053;-68
2022/12/25 00:03:24;;;;;;;41.17;9.18;;;7.30;90.90;;;;;;9174388;19;20037;-68
2022/12/25 00:06:28;;;;;;;;;;;7.30;90.90;;;;;;9182519;19;20341;-68
2022/12/25 00:09:34;;;;;;;45.97;8.85;;;7.40;90.90;;;;;;9177236;19;20300;-68
2022/12/25 00:12:37;;;;;;;35.35;8.70;;;7.40;90.80;;;;;;9180455;19;20018;-68
2022/12/25 00:15:42;;;;;;;35.58;8.55;;;7.30;90.80;;;;;;9181927;19;20022;-68
2022/12/25 00:18:45;;;;;;;29.77;8.20;;;7.30;90.80;;;;;;9182134;19;20011;-69
2022/12/25 00:21:49;;;;;;;;;;;7.30;90.90;;;;;;9181067;19;20021;-69
2022/12/25 00:24:55;;;;;;;36.28;8.50;;;7.30;90.90;;;;;;9179799;19;19914;-69
2022/12/25 00:27:58;;;;;;;38.33;8.77;;;7.30;90.80;;;;;;9176365;19;20482;-70
2022/12/25 00:31:05;;;;;;;32.83;7.85;;;7.30;90.80;;;;;;9178107;19;20495;-68
2022/12/25 00:34:09;;;;;;;35.35;8.02;;;7.30;90.90;;;;;;9176809;19;20035;-69
2022/12/25 00:37:13;;;;;;;39.42;8.98;;;7.30;90.90;;;;;;9173473;19;20014;-68
2022/12/25 00:40:19;;;;;;;44.55;8.88;;;7.30;90.90;;;;;;9173555;19;20437;-69
2022/12/25 00:43:23;;;;;;;36.50;9.13;;;7.30;90.90;;;;;;9174881;19;20377;-67
2022/12/25 00:46:26;;;;;;;;;;;7.30;90.90;;;;;;9176586;19;20014;-68
2022/12/25 00:49:30;;;;;;;42.33;10.27;;;7.30;90.90;;;;;;9178371;19;19939;-69
2022/12/25 00:52:34;;;;;;;48.47;14.35;;;7.30;90.90;;;;;;9179434;19;20345;-68
2022/12/25 00:55:39;;;;;;;42.83;10.48;;;7.30;90.90;;;;;;9170608;19;20668;-69
2022/12/25 00:58:43;;;;;;;46.53;10.48;;;7.30;91.00;;;;;;9179787;19;20010;-67
2022/12/25 01:01:47;;;;;;;30.15;8.15;;;7.30;91.00;;;;;;9178633;19;20011;-68
2022/12/25 01:04:52;;;;;;;40.20;8.93;;;7.30;91.00;;;;;;9175336;19;20637;-68
2022/12/25 01:07:56;;;;;;;42.00;9.23;;;7.30;91.00;;;;;;9179556;19;20463;-68
2022/12/25 01:11:02;;;;;;;29.85;8.20;;;7.40;91.00;;;;;;9176342;19;20092;-68
2022/12/25 01:14:06;;;;;;;32.72;8.68;;;7.40;91.00;;;;;;9180622;19;20011;-69
2022/12/25 01:17:10;;;;;;;45.50;9.40;;;7.30;91.00;;;;;;9179842;19;20078;-70
2022/12/25 01:20:16;;;;;;;37.67;9.70;;;7.40;91.00;;;;;;9178325;19;20015;-67
2022/12/25 01:23:20;;;;;;;33.90;8.77;;;7.40;91.10;;;;;;9179313;19;20018;-70
2022/12/25 01:26:28;;;;;;;47.63;8.95;;;7.40;91.10;;;;;;9178159;19;20035;-69
2022/12/25 01:29:32;;;;;;;42.03;9.23;;;7.40;91.10;;;;;;9179169;19;20421;-69
2022/12/25 01:32:35;;;;;;;;;;;7.50;91.20;;;;;;9179051;19;20011;-69
2022/12/25 01:35:40;;;;;;;41.72;11.00;;;7.50;91.20;;;;;;9175967;19;19978;-70
2022/12/25 01:38:45;;;;;;;44.00;9.02;;;7.50;91.10;;;;;;9178838;19;20017;-69
2022/12/25 01:41:50;;;;;;;50.17;10.15;;;7.60;91.20;;;;;;9179375;19;20073;-67
2022/12/25 01:45:27;;;;;;;46.15;9.00;;;7.60;91.20;;;;;;9178364;19;20018;-68
2022/12/25 01:48:34;;;;;;;41.65;9.05;;;7.60;91.20;;;;;;9178141;19;20589;-68
2022/12/25 01:51:41;;;;;;;40.22;9.52;;;7.70;91.20;;;;;;9175344;19;20022;-68
2022/12/25 01:54:49;;;;;;;38.40;9.98;;;7.70;91.20;;;;;;9178729;19;20482;-69
2022/12/25 01:57:55;;;;;;;31.55;9.70;;;7.80;91.20;;;;;;9178186;19;20014;-69
2022/12/25 02:00:59;;;;;;;46.42;9.48;;;7.80;91.20;;;;;;9177346;19;20368;-69
2022/12/25 02:04:14;;;;;;;51.25;10.07;;;7.90;91.30;;;;;;9173351;19;20014;-69
2022/12/25 02:07:21;;;;;;;44.03;8.77;;;7.90;91.30;;;;;;9178438;19;20464;-69
2022/12/25 02:10:25;;;;;;;36.80;10.77;;;7.90;91.30;;;;;;9176391;19;20034;-69
2022/12/25 02:13:31;;;;;;;33.35;8.82;;;8.00;91.30;;;;;;9178142;19;20602;-69
2022/12/25 02:16:38;;;;;;;31.50;8.00;;;8.00;91.30;;;;;;9178139;19;20479;-69
2022/12/25 02:20:17;;;;;;;37.40;8.23;;;8.00;91.30;;;;;;9178259;19;20010;-69
2022/12/25 02:24:01;;;;;;;40.42;8.65;;;8.10;91.30;;;;;;9178716;19;20018;-69
2022/12/25 02:27:17;;;;;;;33.28;8.32;;;8.10;91.30;;;;;;9177326;19;20021;-67
2022/12/25 02:30:23;;;;;;;31.55;8.70;;;8.10;91.20;;;;;;9175423;19;20022;-67
2022/12/25 02:36:53;;;;;;;46.17;8.93;;;8.20;91.30;;;;;;9177841;19;20018;-69
2022/12/25 02:40:03;;;;;;;36.67;7.72;;;8.20;91.30;;;;;;9176825;19;20021;-69
2022/12/25 03:06:46;;;;;;;28.20;7.82;;;8.50;91.40;;;;;;9183984;19;20018;-69
2022/12/25 03:13:19;;;;;;;34.53;8.15;;;8.50;91.70;;;;;;9181130;19;20015;-69
2022/12/25 03:33:15;;;;;;;28.88;7.55;;;8.70;91.40;;;;;;9182864;19;20104;-69
2022/12/25 03:36:53;;;;;;;35.55;7.53;;;8.80;91.50;;;;;;9183479;19;20402;-68
2022/12/25 04:36:41;;;;;;;27.63;6.93;;;9.20;91.60;;;;;;9180269;19;20021;-69
2022/12/25 04:39:45;;;;;;;25.13;7.28;;;9.20;91.60;;;;;;9181536;19;20013;-70
2022/12/25 04:42:51;;;;;;;44.85;7.78;;;9.30;91.60;;;;;;9179688;19;20483;-70
2022/12/25 04:45:55;;;;;;;19.33;6.57;;;9.30;91.60;;;;;;9179664;19;20010;-68
2022/12/25 04:48:58;;;;;;;22.20;7.38;;;9.30;91.60;;;;;;9180637;19;20029;-68
2022/12/25 04:52:02;;;;;;;23.10;6.13;;;9.30;91.60;;;;;;9178725;19;20022;-69
2022/12/25 04:55:08;;;;;;;24.80;7.53;;;9.30;91.60;;;;;;9179390;19;20018;-69
2022/12/25 04:58:13;;;;;;;28.98;7.93;;;9.30;91.60;;;;;;9181091;19;20022;-69
2022/12/25 05:01:17;;;;;;;23.92;6.90;;;9.40;91.60;;;;;;9177940;19;20018;-69
2022/12/25 05:04:21;;;;;;;33.63;7.45;;;9.40;91.60;;;;;;9174273;19;20045;-69
2022/12/25 05:07:25;;;;;;;;;;;9.40;91.60;;;;;;9180883;19;20414;-69
2022/12/25 05:10:29;;;;;;;40.73;7.07;;;9.40;91.60;;;;;;9180066;19;19919;-69
2022/12/25 05:13:35;;;;;;;30.92;7.10;;;9.40;91.60;;;;;;9180325;19;20040;-70
2022/12/25 05:16:39;;;;;;;26.38;6.35;;;9.40;91.60;;;;;;9181090;19;20348;-70
2022/12/25 05:19:43;;;;;;;25.75;6.68;;;9.40;91.60;;;;;;9177610;19;20030;-70
2022/12/25 05:22:47;;;;;;;17.75;7.22;;;9.50;91.60;;;;;;9180051;19;20100;-69
2022/12/25 05:25:51;;;;;;;25.95;6.75;;;9.50;91.60;;;;;;9178609;19;20021;-69
2022/12/25 05:28:56;;;;;;;23.88;7.43;;;9.50;91.60;;;;;;9178807;19;20049;-69
2022/12/25 05:32:00;;;;;;;19.40;6.22;;;9.50;91.60;;;;;;9177499;19;20365;-69
2022/12/25 05:35:05;;;;;;;17.35;6.50;;;9.50;91.70;;;;;;9178112;19;20027;-69
2022/12/25 05:38:09;;;;;;;21.02;6.28;;;9.60;91.70;;;;;;9179553;19;20353;-69
2022/12/25 05:41:13;;;;;;;21.20;6.40;;;9.60;91.70;;;;;;9179444;19;20426;-69
2022/12/25 05:44:19;;;;;;;32.97;7.70;;;9.60;91.70;;;;;;9177119;19;20386;-69
2022/12/25 05:47:22;;;;;;;23.10;7.20;;;9.60;91.70;;;;;;9177430;19;20086;-69
2022/12/25 05:50:26;;;;;;;18.80;6.60;;;9.60;91.70;;;;;;9177993;19;20030;-69
2022/12/25 05:53:40;;;;;;;35.70;6.80;;;9.70;91.70;;;;;;9178959;19;20015;-70
2022/12/25 05:56:44;;;;;;;22.63;6.70;;;9.70;91.70;;;;;;9179030;19;20022;-70
2022/12/25 05:59:50;;;;;;;20.38;6.47;;;9.70;91.70;;;;;;9178625;19;20015;-69
2022/12/25 06:02:54;;;;;;;22.88;6.85;;;9.70;91.70;;;;;;9173427;19;20448;-70
2022/12/25 06:05:57;;;;;;;;;;;9.70;91.70;;;;;;9174521;19;20024;-69
2022/12/25 06:09:01;;;;;;;24.10;5.53;;;9.70;91.70;;;;;;9178537;19;19957;-69
2022/12/25 06:12:05;;;;;;;27.48;6.25;;;9.70;91.60;;;;;;9173791;19;20495;-69
2022/12/25 06:15:11;;;;;;;;;;;9.70;91.60;;;;;;9178043;19;20014;-69
2022/12/25 06:18:15;;;;;;;17.00;6.40;;;9.70;91.70;;;;;;9176363;19;19922;-69
2022/12/25 06:21:19;;;;;;;26.20;6.35;;;9.70;91.60;;;;;;9176911;19;20511;-69
2022/12/25 06:24:22;;;;;;;;;;;9.70;91.60;;;;;;9178561;19;20007;-70
2022/12/25 06:27:27;;;;;;;28.15;7.03;;;9.80;91.70;;;;;;9177610;19;19951;-69
2022/12/25 06:30:33;;;;;;;20.48;6.40;;;9.80;91.60;;;;;;9176014;19;20015;-70
2022/12/25 06:33:37;;;;;;;21.67;6.35;;;9.70;91.60;;;;;;9174998;19;20010;-70
2022/12/25 06:36:41;;;;;;;17.63;5.38;;;9.80;91.70;;;;;;9177218;19;20014;-70
2022/12/25 06:39:44;;;;;;;24.75;6.80;;;9.80;91.70;;;;;;9178218;19;20011;-70
2022/12/25 06:42:48;;;;;;;21.65;7.18;;;9.80;91.70;;;;;;9177465;19;20073;-70
2022/12/25 06:45:54;;;;;;;15.52;6.18;;;9.80;91.70;;;;;;9175305;19;20034;-68
2022/12/25 06:48:59;;;;;;;17.77;6.90;;;9.80;91.70;;;;;;9177092;19;20015;-69
2022/12/25 06:52:03;;;;;;;22.48;6.72;;;9.80;91.70;;;;;;9174627;19;20014;-70
2022/12/25 06:55:07;;;;;;;20.38;6.45;;;9.80;91.70;;;;;;9175163;19;20018;-71
2022/12/25 06:58:11;;;;;;;17.55;6.72;;;9.80;91.70;;;;;;9176449;19;20021;-69
2022/12/25 07:01:21;;;;;;;18.02;6.40;;;9.70;91.60;;;;;;9174697;19;20019;-69
2022/12/25 07:04:30;;;;;;;14.98;6.13;;;9.80;91.60;;;;;;9171328;19;20351;-70
2022/12/25 07:07:34;;;;;;;19.33;6.80;;;9.70;91.60;;;;;;9175911;19;20021;-69
2022/12/25 07:10:38;;;;;;;19.30;6.57;;;9.70;91.60;;;;;;9174955;19;20026;-68
2022/12/25 07:13:42;;;;;;;24.40;7.35;;;9.70;91.60;;;;;;9171324;19;20019;-70
2022/12/25 07:16:47;;;;;;;18.05;6.90;;;9.70;91.70;;;;;;9176326;19;20015;-68
2022/12/25 07:19:51;;;;;;;16.83;6.60;;;9.70;91.70;;;;;;9175532;19;20026;-70
2022/12/25 07:22:55;;;;;;;20.20;6.50;;;9.70;91.70;;;;;;9175196;19;20014;-70
2022/12/25 07:26:01;;;;;;;20.30;7.00;;;9.70;91.70;;;;;;9175464;19;20007;-70
2022/12/25 07:29:05;;;;;;;24.52;7.05;;;9.70;91.70;;;;;;9174503;19;20011;-70
2022/12/25 07:32:11;;;;;;;23.63;7.00;;;9.70;91.70;;;;;;9170580;19;20019;-70
2022/12/25 07:35:15;;;;;;;18.13;7.40;;;9.70;92.00;;;;;;9174853;19;20057;-69
2022/12/25 07:38:18;;;;;;;18.25;6.97;;;9.80;91.70;;;;;;9175407;19;20494;-69
2022/12/25 07:41:22;;;;;;;23.65;7.35;;;9.80;91.70;;;;;;9173936;19;20014;-69
2022/12/25 07:44:26;;;;;;;21.25;7.93;;;9.80;91.70;;;;;;9177779;19;20025;-71
2022/12/25 07:47:31;;;;;;;22.77;6.38;;;9.80;91.70;;;;;;9181805;19;20015;-69
2022/12/25 07:50:35;;;;;;;17.95;6.50;;;9.80;91.80;;;;;;9182913;19;20014;-70
2022/12/25 07:53:41;;;;;;;18.30;7.15;;;9.80;91.70;;;;;;9183530;19;20010;-70
2022/12/25 07:56:45;;;;;;;17.48;6.43;;;9.80;91.70;;;;;;9180266;19;20042;-70
2022/12/25 07:59:49;;;;;;;21.20;7.10;;;9.80;91.70;;;;;;9182496;19;20384;-69
2022/12/25 08:02:54;;;;;;;16.40;6.45;;;9.80;91.80;;;;;;9178736;19;20031;-69
2022/12/25 08:06:01;;;;;;;21.70;7.07;;;9.90;91.80;;;;;;9175451;19;20018;-69
2022/12/25 08:09:06;;;;;;;17.58;6.60;;;9.90;91.80;;;;;;9178936;19;20014;-69
2022/12/25 08:12:10;;;;;;;13.98;6.80;;;9.90;91.80;;;;;;9180796;19;20475;-69
2022/12/25 08:15:14;;;;;;;15.15;5.90;;;9.90;91.80;;;;;;9179326;19;20002;-69
2022/12/25 08:18:20;;;;;;;;;;;9.90;91.80;;;;;;9182575;19;20043;-70
2022/12/25 08:21:30;;;;;;;16.95;6.30;;;9.90;91.70;;;;;;9179987;19;19936;-68
2022/12/25 08:24:34;;;;;;;15.07;6.38;;;10.00;91.70;;;;;;9181644;19;20582;-69
2022/12/25 08:27:38;;;;;;;20.67;6.65;;;10.00;91.70;;;;;;9180866;19;20377;-70
2022/12/25 08:30:42;;;;;;;16.38;5.93;;;10.00;91.80;;;;;;9179676;19;20019;-69
2022/12/25 08:33:48;;;;;;;;;;;10.00;91.80;;;;;;9179706;19;20483;-70
2022/12/25 08:36:51;;;;;;;18.25;5.82;;;10.00;91.70;;;;;;9181422;19;19930;-70
2022/12/25 08:39:55;;;;;;;15.15;5.70;;;10.00;91.70;;;;;;9181231;19;20010;-68
2022/12/25 08:42:59;;;;;;;12.55;5.22;;;10.10;91.70;;;;;;9180189;19;20034;-70
2022/12/25 08:46:03;;;;;;;;;;;10.10;91.70;;;;;;9172206;19;20019;-70
2022/12/25 08:49:09;;;;;;;24.35;5.68;;;10.10;91.70;;;;;;9168547;19;20240;-69
2022/12/25 08:52:12;;;;;;;13.07;5.22;;;10.10;91.70;;;;;;9169456;19;20368;-69
2022/12/25 08:55:16;;;;;;;14.20;5.88;;;10.10;91.70;;;;;;9173930;19;20014;-69
2022/12/25 08:58:20;;;;;;;;;;;10.10;91.70;;;;;;9173304;19;20518;-69
2022/12/25 09:01:24;;;;;;;13.73;5.82;;;10.10;91.70;;;;;;9173697;19;19922;-69
2022/12/25 09:04:29;;;;;;;;;;;10.10;91.70;;;;;;9169855;19;20019;-69
2022/12/25 09:07:33;;;;;;;13.30;5.20;;;10.20;91.70;;;;;;9173743;19;19931;-70
2022/12/25 09:10:37;;;;;;;12.77;5.40;;;10.20;91.70;;;;;;9173517;19;20547;-70
2022/12/25 09:13:41;;;;;;;13.38;5.18;;;10.20;91.70;;;;;;9174611;19;20026;-69
2022/12/25 09:16:45;;;;;;;15.38;5.53;;;10.20;91.70;;;;;;9174469;19;20033;-68
2022/12/25 09:19:51;;;;;;;20.58;5.43;;;10.20;91.70;;;;;;9174678;19;20015;-70
2022/12/25 09:22:55;;;;;;;15.85;5.85;;;10.20;91.70;;;;;;9173319;19;20015;-71
2022/12/25 09:25:59;;;;;;;22.75;6.65;;;10.20;91.70;;;;;;9175052;19;20017;-69
2022/12/25 09:29:03;;;;;;;14.80;6.07;;;10.20;91.70;;;;;;9172041;19;20352;-69
2022/12/25 09:32:07;;;;;;;11.02;5.45;;;10.20;91.70;;;;;;9169778;19;20038;-68
2022/12/25 09:35:16;;;;;;;14.48;5.50;;;10.30;91.70;;;;;;9170172;19;20023;-68
2022/12/25 09:38:20;;;;;;;12.80;6.05;;;10.30;91.70;;;;;;9166972;19;20026;-68
2022/12/25 09:41:27;;;;;;;;;;;10.30;91.70;;;;;;9171038;19;20023;-70
2022/12/25 09:44:35;;;;;;;12.27;5.10;;;10.30;91.70;;;;;;9165177;19;20002;-68
2022/12/25 09:47:43;;;;;;;11.40;4.70;;;10.30;91.60;;;;;;9165953;19;20026;-68
2022/12/25 09:50:52;;;;;;;13.60;5.82;;;10.40;91.70;;;;;;9164258;19;20066;-68
2022/12/25 09:54:01;;;;;;;17.35;5.75;;;10.30;91.70;;;;;;9167569;19;20066;-68
2022/12/25 09:57:06;;;;;;;10.32;5.90;;;10.30;91.70;;;;;;9166563;19;20014;-68
2022/12/25 10:00:16;;;;;;;11.07;5.47;;;10.40;91.70;;;;;;9166123;19;20086;-70
2022/12/25 10:03:35;;;;;;;15.10;5.57;;;10.40;91.70;;;;;;9157650;19;20026;-68
2022/12/25 10:06:51;;;;;;;11.05;5.32;;;10.40;91.70;;;;;;9161273;19;20018;-68
2022/12/25 10:10:06;;;;;;;14.65;5.82;;;10.40;91.70;;;;;;9162943;19;20007;-69
2022/12/25 10:13:23;;;;;;;12.20;5.90;;;10.40;91.60;;;;;;9155716;19;20018;-68
2022/12/25 10:16:34;;;;;;;10.07;4.90;;;10.40;91.60;;;;;;9162813;19;20396;-69
2022/12/25 10:19:45;;;;;;;14.20;5.45;;;10.40;91.60;;;;;;9167327;19;20011;-68
2022/12/25 10:22:55;;;;;;;16.20;5.38;;;10.40;91.60;;;;;;9160839;19;20479;-69
2022/12/25 10:25:59;;;;;;;13.10;4.88;;;10.50;91.60;;;;;;9164399;19;20065;-68
2022/12/25 10:29:07;;;;;;;13.15;5.63;;;10.50;91.60;;;;;;9169385;19;20022;-67
2022/12/25 10:32:11;;;;;;;9.10;4.95;;;10.50;91.70;;;;;;9168363;19;20017;-68
2022/12/25 10:35:17;;;;;;;11.60;4.90;;;10.50;91.60;;;;;;9170945;19;20018;-69
2022/12/25 10:38:24;;;;;;;12.10;4.85;;;10.50;91.60;;;;;;9170049;19;20021;-68
2022/12/25 10:41:42;;;;;;;13.20;4.55;;;10.50;91.60;;;;;;9170388;19;20025;-69
2022/12/25 10:44:56;;;;;;;10.55;5.25;;;10.50;91.60;;;;;;9166374;19;20018;-68
2022/12/25 10:48:06;;;;;;;14.85;5.00;;;10.50;91.60;;;;;;9164932;19;20098;-69
2022/12/25 10:51:11;;;;;;;16.95;5.35;;;10.50;91.60;;;;;;9168224;19;20029;-69
2022/12/25 10:54:24;;;;;;;11.55;5.15;;;10.50;91.60;;;;;;9168480;19;20010;-69
2022/12/25 10:57:28;;;;;;;9.25;4.93;;;10.60;91.60;;;;;;9168069;19;20027;-69
2022/12/25 11:00:33;;;;;;;16.80;5.32;;;10.60;91.60;;;;;;9167520;19;20014;-68
2022/12/25 11:03:40;;;;;;;12.98;5.85;;;10.60;91.60;;;;;;9159138;19;20094;-68
2022/12/25 11:06:44;;;;;;;12.05;5.28;;;10.50;91.60;;;;;;9168632;19;20098;-69
2022/12/25 11:09:54;;;;;;;14.13;6.15;;;10.60;91.60;;;;;;9170186;19;20019;-70
2022/12/25 11:13:08;;;;;;;12.30;4.75;;;10.60;91.60;;;;;;9166424;19;20028;-69
2022/12/25 11:16:25;;;;;;;13.18;5.13;;;10.60;91.60;;;;;;9169871;19;20018;-69
2022/12/25 11:19:31;;;;;;;10.90;4.88;;;10.60;91.60;;;;;;9175267;19;20014;-69
2022/12/25 11:22:38;;;;;;;14.63;5.60;;;10.60;91.60;;;;;;9177706;19;20021;-69
2022/12/25 11:25:44;;;;;;;12.23;5.50;;;10.60;91.60;;;;;;9178626;19;20483;-70
2022/12/25 11:28:51;;;;;;;10.25;5.05;;;10.60;91.60;;;;;;9178676;19;20478;-68
2022/12/25 11:31:57;;;;;;;11.73;5.53;;;10.60;91.60;;;;;;9176501;19;20014;-68
2022/12/25 11:35:03;;;;;;;20.27;8.15;;;10.60;91.60;;;;;;9174296;19;20108;-69
2022/12/25 11:38:10;;;;;;;14.57;6.15;;;10.60;91.60;;;;;;9175892;19;20023;-68
2022/12/25 11:41:19;;;;;;;18.30;6.72;;;10.60;91.60;;;;;;9176226;19;20372;-69
2022/12/25 11:44:43;;;;;;;15.30;5.22;;;10.60;91.50;;;;;;9174994;19;20022;-69
2022/12/25 11:47:50;;;;;;;14.57;5.55;;;10.60;91.60;;;;;;9168965;19;20039;-68
2022/12/25 11:50:56;;;;;;;14.68;6.13;;;10.60;91.50;;;;;;9173058;19;20022;-69
2022/12/25 11:54:03;;;;;;;13.80;5.60;;;10.60;91.50;;;;;;9172717;19;20043;-68
2022/12/25 11:57:13;;;;;;;13.98;5.13;;;10.50;91.50;;;;;;9175213;19;20018;-68
2022/12/25 12:00:18;;;;;;;10.90;5.47;;;10.60;91.60;;;;;;9176141;19;20090;-69
2022/12/25 12:03:26;;;;;;;10.30;4.07;;;10.50;91.50;;;;;;9165503;19;20086;-68
2022/12/25 12:06:43;;;;;;;12.32;4.85;;;10.50;91.50;;;;;;9172565;19;20026;-68
2022/12/25 12:09:55;;;;;;;14.88;4.10;;;10.50;91.50;;;;;;9174980;19;20731;-68
2022/12/25 12:13:17;;;;;;;8.38;5.13;;;10.50;91.50;;;;;;9171708;19;20376;-68
2022/12/25 12:16:20;;;;;;;16.75;4.72;;;10.50;91.60;;;;;;9173543;19;20022;-67
2022/12/25 12:19:28;;;;;;;10.82;4.80;;;10.50;91.60;;;;;;9174032;19;20014;-68
2022/12/25 12:22:32;;;;;;;17.38;6.43;;;10.50;91.60;;;;;;9171092;19;20034;-67
2022/12/25 12:25:40;;;;;;;8.82;5.47;;;10.50;91.60;;;;;;9174847;19;20620;-68
2022/12/25 12:28:48;;;;;;;14.27;5.05;;;10.50;91.60;;;;;;9174377;19;20019;-68
2022/12/25 12:31:53;;;;;;;12.13;4.97;;;10.50;91.60;;;;;;9169618;19;20027;-69
2022/12/25 12:34:57;;;;;;;14.10;4.88;;;10.50;91.60;;;;;;9171916;19;20022;-67
2022/12/25 12:38:05;;;;;;;13.38;4.57;;;10.50;91.60;;;;;;9174008;19;20010;-67
2022/12/25 12:41:10;;;;;;;12.63;5.05;;;10.50;91.60;;;;;;9169241;19;20026;-68
2022/12/25 12:44:18;;;;;;;11.45;4.25;;;10.50;91.60;;;;;;9169674;19;20022;-68
2022/12/25 12:47:32;;;;;;;9.25;4.90;;;10.50;91.60;;;;;;9167241;19;20440;-69
2022/12/25 12:50:39;;;;;;;14.50;5.10;;;10.50;91.60;;;;;;9167802;19;20720;-69
2022/12/25 12:53:44;;;;;;;9.98;4.82;;;10.50;91.60;;;;;;9171585;19;20007;-68
2022/12/25 12:56:58;;;;;;;14.80;4.78;;;10.50;91.90;;;;;;9172267;19;20864;-69
2022/12/25 13:00:05;;;;;;;14.35;4.85;;;10.50;91.70;;;;;;9171326;19;20022;-69
2022/12/25 13:03:33;;;;;;;12.20;5.18;;;10.50;91.60;;;;;;9167087;19;20135;-66
2022/12/25 13:06:44;;;;;;;16.08;4.45;;;10.50;91.60;;;;;;9171252;19;20023;-68
2022/12/25 13:10:03;;;;;;;17.30;5.50;;;10.50;91.60;;;;;;9171946;19;20026;-68
2022/12/25 13:13:14;;;;;;;13.77;5.72;;;10.50;91.70;;;;;;9169406;19;20022;-67
2022/12/25 13:16:25;;;;;;;13.82;5.07;;;10.50;91.60;;;;;;9172860;19;20018;-67
2022/12/25 13:19:30;;;;;;;14.35;5.43;;;10.50;91.70;;;;;;9178595;19;20464;-66
2022/12/25 13:22:36;;;;;;;8.35;4.38;;;10.50;91.60;;;;;;9178746;19;20029;-68
2022/12/25 13:25:40;;;;;;;12.63;4.60;;;10.50;91.60;;;;;;9180856;19;20055;-68
2022/12/25 13:28:46;;;;;;;13.95;4.65;;;10.60;91.70;;;;;;9178814;19;20024;-66
2022/12/25 13:31:52;;;;;;;9.25;5.07;;;10.60;91.70;;;;;;9179526;19;20007;-69
2022/12/25 13:34:57;;;;;;;11.75;4.72;;;10.60;91.70;;;;;;9178720;19;20035;-67
2022/12/25 13:38:01;;;;;;;15.15;4.57;;;10.60;91.70;;;;;;9180052;19;20102;-69
2022/12/25 13:44:25;;;;;;;14.40;5.50;;;10.50;91.60;;;;;;9180890;19;20018;-68
2022/12/25 13:47:34;;;;;;;15.20;5.68;;;10.60;91.70;;;;;;9176398;19;20014;-68
2022/12/25 13:50:38;;;;;;;10.50;5.03;;;10.60;91.70;;;;;;9180108;19;20020;-69
2022/12/25 13:53:43;;;;;;;12.63;5.40;;;10.60;91.70;;;;;;9176812;19;20018;-68
2022/12/25 13:56:50;;;;;;;12.27;5.40;;;10.60;91.70;;;;;;9178447;19;20018;-68
2022/12/25 13:59:54;;;;;;;18.30;7.03;;;10.60;91.70;;;;;;9177872;19;20010;-68
2022/12/25 14:03:01;;;;;;;16.52;5.70;;;10.60;91.70;;;;;;9177026;19;20351;-68
2022/12/25 14:06:07;;;;;;;13.25;6.18;;;10.60;91.70;;;;;;9174674;19;20015;-69
2022/12/25 14:09:12;;;;;;;15.48;6.22;;;10.60;91.70;;;;;;9179366;19;20018;-69
2022/12/25 14:12:17;;;;;;;17.15;6.97;;;10.60;91.70;;;;;;9175608;19;20014;-68
2022/12/25 14:15:24;;;;;;;13.27;6.57;;;10.60;91.70;;;;;;9179523;19;20006;-68
2022/12/25 14:18:31;;;;;;;17.60;6.55;;;10.60;91.70;;;;;;9179613;19;20356;-68
2022/12/25 14:21:39;;;;;;;12.43;6.28;;;10.60;91.70;;;;;;9178977;19;20022;-68
2022/12/25 14:24:43;;;;;;;13.75;6.70;;;10.60;91.70;;;;;;9178888;19;20471;-69
2022/12/25 14:27:50;;;;;;;14.80;6.47;;;10.70;91.70;;;;;;9178857;19;20026;-67
2022/12/25 14:30:54;;;;;;;11.43;5.85;;;10.70;91.70;;;;;;9177930;19;20031;-69
2022/12/25 14:34:01;;;;;;;19.27;7.40;;;10.70;91.70;;;;;;9174769;19;20022;-68
2022/12/25 14:37:06;;;;;;;18.75;8.48;;;10.60;91.70;;;;;;9178505;19;20019;-69
2022/12/25 14:40:22;;;;;;;17.77;8.23;;;10.70;91.70;;;;;;9176555;19;20023;-69
2022/12/25 14:43:28;;;;;;;14.95;7.03;;;10.70;91.70;;;;;;9175066;19;20069;-68
2022/12/25 14:46:34;;;;;;;13.38;7.80;;;10.70;91.70;;;;;;9177226;19;20014;-70
2022/12/25 14:49:41;;;;;;;16.65;7.60;;;10.70;91.70;;;;;;9177436;19;20078;-67
2022/12/25 14:52:46;;;;;;;15.63;8.88;;;10.70;91.70;;;;;;9173134;19;20014;-70
2022/12/25 14:55:53;;;;;;;17.08;8.60;;;10.70;91.70;;;;;;9177507;19;20018;-68
2022/12/25 14:58:59;;;;;;;14.77;8.38;;;10.70;91.70;;;;;;9178250;19;20030;-70
2022/12/25 15:02:03;;;;;;;19.48;9.43;;;10.70;91.70;;;;;;9175316;19;20021;-68
2022/12/25 15:05:35;;;;;;;19.65;8.45;;;10.70;91.70;;;;;;9173770;19;20030;-67
2022/12/25 15:08:41;;;;;;;14.43;7.28;;;10.70;91.70;;;;;;9174127;19;20132;-68
2022/12/25 15:11:48;;;;;;;17.90;7.93;;;10.70;91.70;;;;;;9177141;19;20447;-68
2022/12/25 15:14:52;;;;;;;13.70;7.53;;;10.70;91.70;;;;;;9176877;19;20018;-68
2022/12/25 15:17:57;;;;;;;17.73;8.55;;;10.70;91.70;;;;;;9176806;19;20483;-68
2022/12/25 15:21:03;;;;;;;17.92;8.30;;;10.70;91.70;;;;;;9174453;19;20357;-68
2022/12/25 15:24:12;;;;;;;15.00;8.43;;;10.70;91.70;;;;;;9177354;19;20349;-68
2022/12/25 15:27:20;;;;;;;15.43;8.35;;;10.70;91.70;;;;;;9176150;19;20044;-67
2022/12/25 15:30:24;;;;;;;15.10;8.15;;;10.70;91.70;;;;;;9175243;19;20015;-66
2022/12/25 15:33:27;;;;;;;17.10;8.13;;;10.70;91.70;;;;;;9174361;19;20015;-68
2022/12/25 15:36:33;;;;;;;17.02;8.27;;;10.70;91.70;;;;;;9176297;19;20503;-68
2022/12/25 15:39:37;;;;;;;13.80;8.65;;;10.70;91.70;;;;;;9173196;19;20017;-68
2022/12/25 15:42:42;;;;;;;21.02;9.25;;;10.70;91.70;;;;;;9174691;19;20014;-68
2022/12/25 15:45:48;;;;;;;17.70;9.07;;;10.70;91.70;;;;;;9175673;19;20022;-67
2022/12/25 15:48:52;;;;;;;17.77;8.77;;;10.70;91.70;;;;;;9176068;19;20057;-67
2022/12/25 15:51:57;;;;;;;14.35;9.40;;;10.70;91.70;;;;;;9174268;19;20028;-68
2022/12/25 15:55:01;;;;;;;17.08;9.00;;;10.70;91.80;;;;;;9173762;19;20021;-68
2022/12/25 15:58:05;;;;;;;16.52;9.40;;;10.70;91.70;;;;;;9175949;19;20014;-67
2022/12/25 16:01:14;;;;;;;22.70;9.02;;;10.70;91.70;;;;;;9174338;19;20027;-67
2022/12/25 16:04:18;;;;;;;20.95;9.95;;;10.70;91.70;;;;;;9170356;19;20040;-68
2022/12/25 16:07:26;;;;;;;17.10;9.13;;;10.70;91.70;;;;;;9181279;19;20082;-66
2022/12/25 16:10:30;;;;;;;15.63;8.60;;;10.70;91.70;;;;;;9182478;19;20010;-67
2022/12/25 16:13:42;;;;;;;16.15;9.25;;;10.60;91.70;;;;;;9180391;19;20021;-68
2022/12/25 16:16:46;;;;;;;14.20;9.18;;;10.70;91.70;;;;;;9183041;19;20479;-66
2022/12/25 16:19:49;;;;;;;18.23;8.70;;;10.60;91.70;;;;;;9182932;19;20018;-66
2022/12/25 16:22:55;;;;;;;15.38;9.20;;;10.60;91.70;;;;;;9183841;19;20018;-69
2022/12/25 16:25:59;;;;;;;22.85;9.35;;;10.70;91.70;;;;;;9182924;19;20547;-68
2022/12/25 16:29:04;;;;;;;24.98;12.98;;;10.70;91.80;;;;;;9182897;19;20391;-69
2022/12/25 16:32:12;;;;;;;25.52;13.40;;;10.70;91.70;;;;;;9181904;19;20408;-68
2022/12/25 16:35:16;;;;;;;23.05;12.48;;;10.60;91.70;;;;;;9180357;19;20019;-68
2022/12/25 16:38:22;;;;;;;21.42;11.77;;;10.60;91.70;;;;;;9176129;19;20010;-68
2022/12/25 16:41:26;;;;;;;19.85;10.65;;;10.60;91.70;;;;;;9173108;19;21623;-67
2022/12/25 16:44:30;;;;;;;19.48;10.75;;;10.60;91.70;;;;;;9176836;19;20025;-68
2022/12/25 16:47:33;;;;;;;20.27;11.20;;;10.60;91.70;;;;;;9180410;19;20011;-68
2022/12/25 16:50:39;;;;;;;22.95;10.93;;;10.60;91.80;;;;;;9181147;19;20011;-69
2022/12/25 16:53:45;;;;;;;17.73;9.70;;;10.60;91.80;;;;;;9177277;19;20014;-67
2022/12/25 16:56:50;;;;;;;18.08;10.75;;;10.60;91.70;;;;;;9181284;19;20033;-67
2022/12/25 16:59:54;;;;;;;20.10;11.77;;;10.60;91.80;;;;;;9181637;19;20021;-68
2022/12/25 17:02:58;;;;;;;;;;;10.60;91.80;;;;;;9179830;19;20025;-68
2022/12/25 17:06:02;;;;;;;16.33;10.50;;;10.60;91.80;;;;;;9176912;19;20323;-67
2022/12/25 17:09:09;;;;;;;21.33;10.88;;;10.50;91.70;;;;;;9180332;19;20922;-68
2022/12/25 17:12:13;;;;;;;26.92;14.23;;;10.50;91.70;;;;;;9179779;19;20018;-68
2022/12/25 17:15:17;;;;;;;29.00;14.73;;;10.60;91.70;;;;;;9180071;19;20022;-68
2022/12/25 17:18:20;;;;;;;25.83;13.77;;;10.50;91.70;;;;;;9178328;19;20043;-68
2022/12/25 17:21:26;;;;;;;23.58;13.23;;;10.50;91.70;;;;;;9180319;19;20522;-69
2022/12/25 17:24:36;;;;;;;27.38;13.10;;;10.50;91.70;;;;;;9181349;19;20328;-68
2022/12/25 17:27:39;;;;;;;26.70;16.10;;;10.50;91.70;;;;;;9181694;19;20022;-68
2022/12/25 17:30:43;;;;;;;26.50;14.43;;;10.50;91.70;;;;;;9178836;19;20015;-68
2022/12/25 17:33:47;;;;;;;26.77;14.77;;;10.50;91.70;;;;;;9178063;19;20018;-68
2022/12/25 17:36:51;;;;;;;24.90;14.60;;;10.50;91.80;;;;;;9180263;19;20015;-69
2022/12/25 17:39:56;;;;;;;23.58;14.65;;;10.50;91.80;;;;;;9180850;19;20015;-68
2022/12/25 17:43:00;;;;;;;27.08;13.98;;;10.50;91.80;;;;;;9180289;19;20010;-68
2022/12/25 17:46:08;;;;;;;35.47;17.60;;;10.50;91.80;;;;;;9180988;19;20018;-68
2022/12/25 17:49:18;;;;;;;26.65;15.05;;;10.50;91.80;;;;;;9180036;19;20031;-68
2022/12/25 17:52:22;;;;;;;29.80;15.55;;;10.50;91.80;;;;;;9179243;19;20015;-69
2022/12/25 17:55:32;;;;;;;31.05;16.42;;;10.50;91.80;;;;;;9180224;19;20015;-68